sensor_id;sensor_type;location;lat;lon;timestamp;temperature;humidity
24636;DHT22;12772;49.794;10.024;2023-08-06T00:02:05;19.20;64.40
24636;DHT22;12772;49.794;10.024;2023-08-06T00:06:07;19.30;65.10
24636;DHT22;12772;49.794;10.024;2023-08-06T00:10:09;19.40;65.30
24636;DHT22;12772;49.794;10.024;2023-08-06T00:14:11;19.40;65.20
24636;DHT22;12772;49.794;10.024;2023-08-06T00:18:13;19.40;64.90
24636;DHT22;12772;49.794;10.024;2023-08-06T00:22:15;19.40;65.20
24636;DHT22;12772;49.794;10.024;2023-08-06T00:26:18;19.20;65.00
24636;DHT22;12772;49.794;10.024;2023-08-06T00:30:20;19.20;65.10
24636;DHT22;12772;49.794;10.024;2023-08-06T00:34:22;19.10;65.00
24636;DHT22;12772;49.794;10.024;2023-08-06T00:38:24;19.00;64.90
24636;DHT22;12772;49.794;10.024;2023-08-06T00:42:26;19.00;65.00
24636;DHT22;12772;49.794;10.024;2023-08-06T00:46:28;19.00;64.90
24636;DHT22;12772;49.794;10.024;2023-08-06T00:50:31;19.00;64.90
24636;DHT22;12772;49.794;10.024;2023-08-06T00:54:34;19.00;64.20
24636;DHT22;12772;49.794;10.024;2023-08-06T00:58:36;19.00;64.30
24636;DHT22;12772;49.794;10.024;2023-08-06T01:02:38;18.90;64.70
24636;DHT22;12772;49.794;10.024;2023-08-06T01:15:37;18.70;64.70
24636;DHT22;12772;49.794;10.024;2023-08-06T01:19:41;18.70;65.00
24636;DHT22;12772;49.794;10.024;2023-08-06T01:23:43;18.70;65.90
24636;DHT22;12772;49.794;10.024;2023-08-06T01:27:49;18.70;65.10
24636;DHT22;12772;49.794;10.024;2023-08-06T01:31:53;18.70;64.70
24636;DHT22;12772;49.794;10.024;2023-08-06T01:35:55;18.70;65.00
24636;DHT22;12772;49.794;10.024;2023-08-06T01:39:58;18.70;64.70
24636;DHT22;12772;49.794;10.024;2023-08-06T01:44:00;18.70;64.70
24636;DHT22;12772;49.794;10.024;2023-08-06T01:48:02;18.70;64.70
24636;DHT22;12772;49.794;10.024;2023-08-06T01:52:05;18.70;64.70
24636;DHT22;12772;49.794;10.024;2023-08-06T01:56:07;18.70;64.70
24636;DHT22;12772;49.794;10.024;2023-08-06T02:00:09;18.80;64.80
24636;DHT22;12772;49.794;10.024;2023-08-06T02:04:12;18.70;64.70
24636;DHT22;12772;49.794;10.024;2023-08-06T02:08:13;18.80;64.80
24636;DHT22;12772;49.794;10.024;2023-08-06T02:12:16;18.90;64.90
24636;DHT22;12772;49.794;10.024;2023-08-06T02:16:18;18.90;63.80
24636;DHT22;12772;49.794;10.024;2023-08-06T02:20:20;18.90;63.40
24636;DHT22;12772;49.794;10.024;2023-08-06T02:24:22;18.80;63.30
24636;DHT22;12772;49.794;10.024;2023-08-06T02:28:24;18.70;63.20
24636;DHT22;12772;49.794;10.024;2023-08-06T02:32:26;18.70;63.30
24636;DHT22;12772;49.794;10.024;2023-08-06T02:36:30;18.70;63.20
24636;DHT22;12772;49.794;10.024;2023-08-06T02:40:32;18.70;63.20
24636;DHT22;12772;49.794;10.024;2023-08-06T02:44:35;18.60;63.00
24636;DHT22;12772;49.794;10.024;2023-08-06T02:48:37;18.50;63.00
24636;DHT22;12772;49.794;10.024;2023-08-06T02:52:39;18.50;63.40
24636;DHT22;12772;49.794;10.024;2023-08-06T02:56:43;18.40;63.70
24636;DHT22;12772;49.794;10.024;2023-08-06T03:00:46;18.40;63.70
24636;DHT22;12772;49.794;10.024;2023-08-06T03:04:48;18.30;63.80
24636;DHT22;12772;49.794;10.024;2023-08-06T03:08:50;18.30;64.40
24636;DHT22;12772;49.794;10.024;2023-08-06T03:12:52;18.30;64.40
24636;DHT22;12772;49.794;10.024;2023-08-06T03:16:54;18.30;64.40
24636;DHT22;12772;49.794;10.024;2023-08-06T03:20:56;18.20;64.30
24636;DHT22;12772;49.794;10.024;2023-08-06T03:24:59;18.20;64.30
24636;DHT22;12772;49.794;10.024;2023-08-06T03:29:01;18.10;64.20
24636;DHT22;12772;49.794;10.024;2023-08-06T03:33:03;18.10;64.50
24636;DHT22;12772;49.794;10.024;2023-08-06T03:37:05;18.10;65.30
24636;DHT22;12772;49.794;10.024;2023-08-06T03:41:07;18.20;64.90
24636;DHT22;12772;49.794;10.024;2023-08-06T03:45:09;18.20;64.80
24636;DHT22;12772;49.794;10.024;2023-08-06T03:49:11;18.10;64.80
24636;DHT22;12772;49.794;10.024;2023-08-06T03:53:13;18.10;65.00
24636;DHT22;12772;49.794;10.024;2023-08-06T03:57:15;18.20;65.10
24636;DHT22;12772;49.794;10.024;2023-08-06T04:01:17;18.20;64.60
24636;DHT22;12772;49.794;10.024;2023-08-06T04:05:19;18.20;64.60
24636;DHT22;12772;49.794;10.024;2023-08-06T04:09:21;18.30;64.60
24636;DHT22;12772;49.794;10.024;2023-08-06T04:13:23;18.40;64.40
24636;DHT22;12772;49.794;10.024;2023-08-06T04:17:25;18.40;64.50
24636;DHT22;12772;49.794;10.024;2023-08-06T04:21:27;18.50;64.50
24636;DHT22;12772;49.794;10.024;2023-08-06T04:25:29;18.50;64.50
24636;DHT22;12772;49.794;10.024;2023-08-06T04:29:31;18.50;64.30
24636;DHT22;12772;49.794;10.024;2023-08-06T04:33:33;18.50;64.20
24636;DHT22;12772;49.794;10.024;2023-08-06T04:37:35;18.30;64.10
24636;DHT22;12772;49.794;10.024;2023-08-06T04:41:37;18.30;64.40
24636;DHT22;12772;49.794;10.024;2023-08-06T04:45:46;18.20;64.30
24636;DHT22;12772;49.794;10.024;2023-08-06T04:49:48;18.20;64.30
24636;DHT22;12772;49.794;10.024;2023-08-06T04:53:50;18.10;64.20
24636;DHT22;12772;49.794;10.024;2023-08-06T04:57:52;18.20;64.40
24636;DHT22;12772;49.794;10.024;2023-08-06T05:01:54;18.10;64.20
24636;DHT22;12772;49.794;10.024;2023-08-06T05:05:56;18.10;64.20
24636;DHT22;12772;49.794;10.024;2023-08-06T05:09:58;18.10;64.30
24636;DHT22;12772;49.794;10.024;2023-08-06T05:14:00;18.10;64.60
24636;DHT22;12772;49.794;10.024;2023-08-06T05:18:02;18.10;65.00
24636;DHT22;12772;49.794;10.024;2023-08-06T05:22:04;18.20;65.00
24636;DHT22;12772;49.794;10.024;2023-08-06T05:26:06;18.20;65.10
24636;DHT22;12772;49.794;10.024;2023-08-06T05:30:09;18.30;64.70
24636;DHT22;12772;49.794;10.024;2023-08-06T05:34:11;18.30;64.40
24636;DHT22;12772;49.794;10.024;2023-08-06T05:38:13;18.30;64.40
24636;DHT22;12772;49.794;10.024;2023-08-06T05:42:15;18.40;64.50
24636;DHT22;12772;49.794;10.024;2023-08-06T05:46:17;18.40;64.50
24636;DHT22;12772;49.794;10.024;2023-08-06T05:50:19;18.40;64.50
24636;DHT22;12772;49.794;10.024;2023-08-06T05:54:22;18.40;64.50
24636;DHT22;12772;49.794;10.024;2023-08-06T05:58:24;18.40;64.80
24636;DHT22;12772;49.794;10.024;2023-08-06T06:02:29;18.40;64.50
24636;DHT22;12772;49.794;10.024;2023-08-06T06:06:31;18.40;64.40
24636;DHT22;12772;49.794;10.024;2023-08-06T06:10:33;18.50;64.50
24636;DHT22;12772;49.794;10.024;2023-08-06T06:14:35;18.60;64.60
24636;DHT22;12772;49.794;10.024;2023-08-06T06:18:37;18.70;64.70
24636;DHT22;12772;49.794;10.024;2023-08-06T06:22:39;18.70;64.30
24636;DHT22;12772;49.794;10.024;2023-08-06T06:26:41;18.70;63.30
24636;DHT22;12772;49.794;10.024;2023-08-06T06:30:44;18.70;62.70
24636;DHT22;12772;49.794;10.024;2023-08-06T06:34:46;18.70;62.90
24636;DHT22;12772;49.794;10.024;2023-08-06T06:38:48;18.70;63.30
24636;DHT22;12772;49.794;10.024;2023-08-06T06:42:50;18.60;63.40
24636;DHT22;12772;49.794;10.024;2023-08-06T06:46:52;18.60;63.80
24636;DHT22;12772;49.794;10.024;2023-08-06T06:50:55;18.60;64.00
24636;DHT22;12772;49.794;10.024;2023-08-06T06:54:57;18.60;64.20
24636;DHT22;12772;49.794;10.024;2023-08-06T06:58:59;18.60;64.30
24636;DHT22;12772;49.794;10.024;2023-08-06T07:03:01;18.60;64.00
24636;DHT22;12772;49.794;10.024;2023-08-06T07:07:04;18.50;63.90
24636;DHT22;12772;49.794;10.024;2023-08-06T07:11:06;18.50;63.90
24636;DHT22;12772;49.794;10.024;2023-08-06T07:15:08;18.50;63.50
24636;DHT22;12772;49.794;10.024;2023-08-06T07:19:11;18.50;63.20
24636;DHT22;12772;49.794;10.024;2023-08-06T07:23:13;18.50;63.10
24636;DHT22;12772;49.794;10.024;2023-08-06T07:27:15;18.50;62.90
24636;DHT22;12772;49.794;10.024;2023-08-06T07:31:17;18.40;62.90
24636;DHT22;12772;49.794;10.024;2023-08-06T07:35:19;18.50;63.10
24636;DHT22;12772;49.794;10.024;2023-08-06T07:39:21;18.50;63.00
24636;DHT22;12772;49.794;10.024;2023-08-06T07:43:24;18.50;62.90
24636;DHT22;12772;49.794;10.024;2023-08-06T07:47:26;18.50;63.00
24636;DHT22;12772;49.794;10.024;2023-08-06T07:51:28;18.50;63.20
24636;DHT22;12772;49.794;10.024;2023-08-06T07:55:30;18.50;63.00
24636;DHT22;12772;49.794;10.024;2023-08-06T07:59:32;18.60;63.20
24636;DHT22;12772;49.794;10.024;2023-08-06T08:03:34;18.60;62.90
24636;DHT22;12772;49.794;10.024;2023-08-06T08:07:36;18.60;62.60
24636;DHT22;12772;49.794;10.024;2023-08-06T08:11:38;18.60;62.40
24636;DHT22;12772;49.794;10.024;2023-08-06T08:15:40;18.60;62.50
24636;DHT22;12772;49.794;10.024;2023-08-06T08:19:43;18.70;62.40
24636;DHT22;12772;49.794;10.024;2023-08-06T08:23:45;18.70;62.50
24636;DHT22;12772;49.794;10.024;2023-08-06T08:27:50;18.70;62.80
24636;DHT22;12772;49.794;10.024;2023-08-06T08:31:52;18.70;63.30
24636;DHT22;12772;49.794;10.024;2023-08-06T08:35:54;18.70;64.10
24636;DHT22;12772;49.794;10.024;2023-08-06T08:39:56;18.60;64.60
24636;DHT22;12772;49.794;10.024;2023-08-06T08:43:58;18.50;64.50
24636;DHT22;12772;49.794;10.024;2023-08-06T08:48:01;18.50;65.10
24636;DHT22;12772;49.794;10.024;2023-08-06T08:52:04;18.50;66.00
24636;DHT22;12772;49.794;10.024;2023-08-06T08:56:08;18.60;65.50
24636;DHT22;12772;49.794;10.024;2023-08-06T09:00:10;18.50;65.30
24636;DHT22;12772;49.794;10.024;2023-08-06T09:04:13;18.50;65.30
24636;DHT22;12772;49.794;10.024;2023-08-06T09:08:18;18.60;64.60
24636;DHT22;12772;49.794;10.024;2023-08-06T09:12:21;18.50;65.40
24636;DHT22;12772;49.794;10.024;2023-08-06T09:16:26;18.60;64.60
24636;DHT22;12772;49.794;10.024;2023-08-06T09:20:29;18.70;64.70
24636;DHT22;12772;49.794;10.024;2023-08-06T09:24:31;18.80;64.80
24636;DHT22;12772;49.794;10.024;2023-08-06T09:28:39;18.90;64.90
24636;DHT22;12772;49.794;10.024;2023-08-06T09:32:48;18.90;63.90
24636;DHT22;12772;49.794;10.024;2023-08-06T09:36:53;19.00;63.50
24636;DHT22;12772;49.794;10.024;2023-08-06T09:40:56;19.00;63.30
24636;DHT22;12772;49.794;10.024;2023-08-06T09:45:07;19.00;63.10
24636;DHT22;12772;49.794;10.024;2023-08-06T09:49:09;19.10;63.00
24636;DHT22;12772;49.794;10.024;2023-08-06T09:53:11;19.00;62.80
24636;DHT22;12772;49.794;10.024;2023-08-06T09:57:14;19.10;63.20
24636;DHT22;12772;49.794;10.024;2023-08-06T10:01:18;19.20;63.30
24636;DHT22;12772;49.794;10.024;2023-08-06T10:05:21;19.20;63.30
24636;DHT22;12772;49.794;10.024;2023-08-06T10:09:24;19.30;63.20
24636;DHT22;12772;49.794;10.024;2023-08-06T10:13:26;19.60;63.80
24636;DHT22;12772;49.794;10.024;2023-08-06T10:17:29;19.70;63.10
24636;DHT22;12772;49.794;10.024;2023-08-06T10:21:33;19.90;62.70
24636;DHT22;12772;49.794;10.024;2023-08-06T10:25:39;19.90;62.00
24636;DHT22;12772;49.794;10.024;2023-08-06T10:29:41;20.10;61.20
24636;DHT22;12772;49.794;10.024;2023-08-06T10:33:47;20.10;60.70
24636;DHT22;12772;49.794;10.024;2023-08-06T10:37:49;20.00;62.10
24636;DHT22;12772;49.794;10.024;2023-08-06T10:41:51;19.90;63.10
24636;DHT22;12772;49.794;10.024;2023-08-06T10:45:54;19.90;63.70
24636;DHT22;12772;49.794;10.024;2023-08-06T10:49:58;19.90;64.10
24636;DHT22;12772;49.794;10.024;2023-08-06T10:54:00;19.90;62.90
24636;DHT22;12772;49.794;10.024;2023-08-06T10:58:02;20.00;62.50
24636;DHT22;12772;49.794;10.024;2023-08-06T11:02:04;20.10;62.40
24636;DHT22;12772;49.794;10.024;2023-08-06T11:06:07;20.20;62.60
24636;DHT22;12772;49.794;10.024;2023-08-06T11:10:12;20.40;61.50
24636;DHT22;12772;49.794;10.024;2023-08-06T11:14:17;20.40;60.40
24636;DHT22;12772;49.794;10.024;2023-08-06T11:18:19;20.40;59.80
24636;DHT22;12772;49.794;10.024;2023-08-06T11:22:22;20.40;60.70
24636;DHT22;12772;49.794;10.024;2023-08-06T11:26:24;20.10;62.10
24636;DHT22;12772;49.794;10.024;2023-08-06T11:30:28;20.00;63.20
24636;DHT22;12772;49.794;10.024;2023-08-06T11:34:30;20.00;64.30
24636;DHT22;12772;49.794;10.024;2023-08-06T11:38:32;20.00;64.90
24636;DHT22;12772;49.794;10.024;2023-08-06T11:42:36;20.20;65.80
24636;DHT22;12772;49.794;10.024;2023-08-06T11:46:56;20.30;64.70
24636;DHT22;12772;49.794;10.024;2023-08-06T11:51:00;20.50;64.00
24636;DHT22;12772;49.794;10.024;2023-08-06T11:55:05;20.80;63.20
24636;DHT22;12772;49.794;10.024;2023-08-06T11:59:08;21.00;62.60
24636;DHT22;12772;49.794;10.024;2023-08-06T12:03:11;21.20;61.30
24636;DHT22;12772;49.794;10.024;2023-08-06T12:07:13;21.20;60.10
24636;DHT22;12772;49.794;10.024;2023-08-06T12:11:15;21.10;57.90
24636;DHT22;12772;49.794;10.024;2023-08-06T12:15:17;21.00;58.90
24636;DHT22;12772;49.794;10.024;2023-08-06T12:19:19;20.80;58.60
24636;DHT22;12772;49.794;10.024;2023-08-06T12:23:21;20.60;59.40
24636;DHT22;12772;49.794;10.024;2023-08-06T12:27:23;20.40;59.00
24636;DHT22;12772;49.794;10.024;2023-08-06T12:31:25;20.30;61.10
24636;DHT22;12772;49.794;10.024;2023-08-06T12:35:27;20.30;61.70
24636;DHT22;12772;49.794;10.024;2023-08-06T12:39:29;20.30;62.60
24636;DHT22;12772;49.794;10.024;2023-08-06T12:43:32;20.20;62.60
24636;DHT22;12772;49.794;10.024;2023-08-06T12:47:34;20.10;63.40
24636;DHT22;12772;49.794;10.024;2023-08-06T12:51:36;20.00;64.50
24636;DHT22;12772;49.794;10.024;2023-08-06T12:55:38;20.00;64.50
24636;DHT22;12772;49.794;10.024;2023-08-06T12:59:41;19.90;65.60
24636;DHT22;12772;49.794;10.024;2023-08-06T13:03:43;19.80;65.30
24636;DHT22;12772;49.794;10.024;2023-08-06T13:07:45;19.80;65.60
24636;DHT22;12772;49.794;10.024;2023-08-06T13:11:47;19.70;65.50
24636;DHT22;12772;49.794;10.024;2023-08-06T13:15:51;19.60;65.40
24636;DHT22;12772;49.794;10.024;2023-08-06T13:19:53;19.50;65.30
24636;DHT22;12772;49.794;10.024;2023-08-06T13:23:54;19.40;65.90
24636;DHT22;12772;49.794;10.024;2023-08-06T13:27:56;19.30;65.70
24636;DHT22;12772;49.794;10.024;2023-08-06T13:31:58;19.10;65.80
24636;DHT22;12772;49.794;10.024;2023-08-06T13:36:00;19.00;66.80
24636;DHT22;12772;49.794;10.024;2023-08-06T13:40:03;18.90;67.90
24636;DHT22;12772;49.794;10.024;2023-08-06T13:44:05;18.80;68.10
24636;DHT22;12772;49.794;10.024;2023-08-06T13:48:07;18.70;67.70
24636;DHT22;12772;49.794;10.024;2023-08-06T13:52:11;18.60;67.30
24636;DHT22;12772;49.794;10.024;2023-08-06T13:56:13;18.40;67.30
24636;DHT22;12772;49.794;10.024;2023-08-06T14:00:16;18.30;67.40
24636;DHT22;12772;49.794;10.024;2023-08-06T14:04:18;18.30;67.00
24636;DHT22;12772;49.794;10.024;2023-08-06T14:08:21;18.20;66.60
24636;DHT22;12772;49.794;10.024;2023-08-06T14:12:24;18.10;67.40
24636;DHT22;12772;49.794;10.024;2023-08-06T14:16:26;18.10;67.90
24636;DHT22;12772;49.794;10.024;2023-08-06T14:20:28;18.10;67.40
24636;DHT22;12772;49.794;10.024;2023-08-06T14:24:30;18.10;67.80
24636;DHT22;12772;49.794;10.024;2023-08-06T14:28:32;18.10;67.70
24636;DHT22;12772;49.794;10.024;2023-08-06T14:32:34;18.10;67.90
24636;DHT22;12772;49.794;10.024;2023-08-06T14:36:36;18.10;67.50
24636;DHT22;12772;49.794;10.024;2023-08-06T14:40:38;18.10;67.40
24636;DHT22;12772;49.794;10.024;2023-08-06T14:44:41;18.00;67.50
24636;DHT22;12772;49.794;10.024;2023-08-06T14:48:43;18.00;67.90
24636;DHT22;12772;49.794;10.024;2023-08-06T14:52:45;18.00;67.90
24636;DHT22;12772;49.794;10.024;2023-08-06T14:56:47;18.00;68.00
24636;DHT22;12772;49.794;10.024;2023-08-06T15:00:49;18.00;66.60
24636;DHT22;12772;49.794;10.024;2023-08-06T15:04:51;17.90;66.40
24636;DHT22;12772;49.794;10.024;2023-08-06T15:08:53;17.90;65.00
24636;DHT22;12772;49.794;10.024;2023-08-06T15:12:58;17.80;64.80
24636;DHT22;12772;49.794;10.024;2023-08-06T15:17:01;17.80;64.40
24636;DHT22;12772;49.794;10.024;2023-08-06T15:21:03;17.90;64.60
24636;DHT22;12772;49.794;10.024;2023-08-06T15:25:06;17.80;64.00
24636;DHT22;12772;49.794;10.024;2023-08-06T15:29:08;17.90;64.10
24636;DHT22;12772;49.794;10.024;2023-08-06T15:33:10;17.90;64.10
24636;DHT22;12772;49.794;10.024;2023-08-06T15:37:12;17.90;63.80
24636;DHT22;12772;49.794;10.024;2023-08-06T15:41:14;17.90;62.80
24636;DHT22;12772;49.794;10.024;2023-08-06T15:45:16;18.00;62.20
24636;DHT22;12772;49.794;10.024;2023-08-06T15:49:18;17.90;62.00
24636;DHT22;12772;49.794;10.024;2023-08-06T15:53:20;18.00;61.90
24636;DHT22;12772;49.794;10.024;2023-08-06T15:57:22;17.90;61.50
24636;DHT22;12772;49.794;10.024;2023-08-06T16:01:24;17.90;61.80
24636;DHT22;12772;49.794;10.024;2023-08-06T16:05:26;18.00;61.90
24636;DHT22;12772;49.794;10.024;2023-08-06T16:09:28;18.00;61.50
24636;DHT22;12772;49.794;10.024;2023-08-06T16:13:31;18.10;61.50
24636;DHT22;12772;49.794;10.024;2023-08-06T16:17:33;18.10;61.50
24636;DHT22;12772;49.794;10.024;2023-08-06T16:21:35;18.20;61.40
24636;DHT22;12772;49.794;10.024;2023-08-06T16:25:38;18.20;60.80
24636;DHT22;12772;49.794;10.024;2023-08-06T16:29:40;18.20;61.00
24636;DHT22;12772;49.794;10.024;2023-08-06T16:33:42;18.20;60.90
24636;DHT22;12772;49.794;10.024;2023-08-06T16:37:45;18.20;61.00
24636;DHT22;12772;49.794;10.024;2023-08-06T16:41:48;18.20;60.90
24636;DHT22;12772;49.794;10.024;2023-08-06T16:45:53;18.20;60.90
24636;DHT22;12772;49.794;10.024;2023-08-06T16:49:56;18.20;61.20
24636;DHT22;12772;49.794;10.024;2023-08-06T16:53:58;18.10;61.60
24636;DHT22;12772;49.794;10.024;2023-08-06T16:57:59;18.10;62.00
24636;DHT22;12772;49.794;10.024;2023-08-06T17:02:02;17.90;62.50
24636;DHT22;12772;49.794;10.024;2023-08-06T17:06:04;17.80;62.90
24636;DHT22;12772;49.794;10.024;2023-08-06T17:10:06;17.60;63.20
24636;DHT22;12772;49.794;10.024;2023-08-06T17:14:10;17.50;63.80
24636;DHT22;12772;49.794;10.024;2023-08-06T17:18:12;17.50;63.70
24636;DHT22;12772;49.794;10.024;2023-08-06T17:22:16;17.30;63.60
24636;DHT22;12772;49.794;10.024;2023-08-06T17:26:18;17.20;63.90
24636;DHT22;12772;49.794;10.024;2023-08-06T17:30:20;17.20;64.50
24636;DHT22;12772;49.794;10.024;2023-08-06T17:34:23;17.20;64.80
24636;DHT22;12772;49.794;10.024;2023-08-06T17:38:25;17.10;64.90
24636;DHT22;12772;49.794;10.024;2023-08-06T17:42:27;17.10;65.10
24636;DHT22;12772;49.794;10.024;2023-08-06T17:46:29;17.10;65.80
24636;DHT22;12772;49.794;10.024;2023-08-06T17:50:31;17.10;66.00
24636;DHT22;12772;49.794;10.024;2023-08-06T17:54:33;17.10;66.30
24636;DHT22;12772;49.794;10.024;2023-08-06T17:58:35;17.10;66.60
24636;DHT22;12772;49.794;10.024;2023-08-06T18:02:37;17.00;66.80
24636;DHT22;12772;49.794;10.024;2023-08-06T18:06:39;17.00;67.20
24636;DHT22;12772;49.794;10.024;2023-08-06T18:10:41;17.00;67.30
24636;DHT22;12772;49.794;10.024;2023-08-06T18:14:44;17.00;67.70
24636;DHT22;12772;49.794;10.024;2023-08-06T18:18:46;17.00;67.80
24636;DHT22;12772;49.794;10.024;2023-08-06T18:22:48;16.90;67.70
24636;DHT22;12772;49.794;10.024;2023-08-06T18:26:50;16.90;67.50
24636;DHT22;12772;49.794;10.024;2023-08-06T18:30:52;16.80;67.30
24636;DHT22;12772;49.794;10.024;2023-08-06T18:34:54;16.80;67.50
24636;DHT22;12772;49.794;10.024;2023-08-06T18:38:56;16.80;67.20
24636;DHT22;12772;49.794;10.024;2023-08-06T18:42:58;16.80;67.40
24636;DHT22;12772;49.794;10.024;2023-08-06T18:47:00;16.70;67.60
24636;DHT22;12772;49.794;10.024;2023-08-06T18:51:03;16.80;67.70
24636;DHT22;12772;49.794;10.024;2023-08-06T18:55:05;16.80;67.80
24636;DHT22;12772;49.794;10.024;2023-08-06T18:59:07;16.80;67.80
24636;DHT22;12772;49.794;10.024;2023-08-06T19:03:09;16.80;67.60
24636;DHT22;12772;49.794;10.024;2023-08-06T19:07:11;16.80;67.50
24636;DHT22;12772;49.794;10.024;2023-08-06T19:11:13;16.80;67.50
24636;DHT22;12772;49.794;10.024;2023-08-06T19:15:16;16.70;67.20
24636;DHT22;12772;49.794;10.024;2023-08-06T19:19:18;16.70;67.40
24636;DHT22;12772;49.794;10.024;2023-08-06T19:23:20;16.70;67.30
24636;DHT22;12772;49.794;10.024;2023-08-06T19:27:23;16.60;67.40
24636;DHT22;12772;49.794;10.024;2023-08-06T19:31:25;16.60;67.50
24636;DHT22;12772;49.794;10.024;2023-08-06T19:35:27;16.50;67.70
24636;DHT22;12772;49.794;10.024;2023-08-06T19:39:29;16.50;68.20
24636;DHT22;12772;49.794;10.024;2023-08-06T19:43:32;16.50;68.40
24636;DHT22;12772;49.794;10.024;2023-08-06T19:47:34;16.50;68.50
24636;DHT22;12772;49.794;10.024;2023-08-06T19:51:36;16.40;68.40
24636;DHT22;12772;49.794;10.024;2023-08-06T19:55:40;16.40;68.80
24636;DHT22;12772;49.794;10.024;2023-08-06T19:59:42;16.40;68.70
24636;DHT22;12772;49.794;10.024;2023-08-06T20:03:45;16.50;68.80
24636;DHT22;12772;49.794;10.024;2023-08-06T20:07:47;16.40;68.70
24636;DHT22;12772;49.794;10.024;2023-08-06T20:11:55;16.50;69.10
24636;DHT22;12772;49.794;10.024;2023-08-06T20:16:05;16.50;69.00
24636;DHT22;12772;49.794;10.024;2023-08-06T20:20:09;16.50;68.90
24636;DHT22;12772;49.794;10.024;2023-08-06T20:24:11;16.40;68.80
24636;DHT22;12772;49.794;10.024;2023-08-06T20:28:13;16.40;68.90
24636;DHT22;12772;49.794;10.024;2023-08-06T20:32:15;16.40;68.90
24636;DHT22;12772;49.794;10.024;2023-08-06T20:36:17;16.30;68.70
24636;DHT22;12772;49.794;10.024;2023-08-06T20:40:19;16.20;68.30
24636;DHT22;12772;49.794;10.024;2023-08-06T20:44:21;16.10;68.60
24636;DHT22;12772;49.794;10.024;2023-08-06T20:48:24;16.10;69.10
24636;DHT22;12772;49.794;10.024;2023-08-06T20:52:26;16.10;69.30
24636;DHT22;12772;49.794;10.024;2023-08-06T20:56:28;16.00;69.10
24636;DHT22;12772;49.794;10.024;2023-08-06T21:00:30;16.00;69.50
24636;DHT22;12772;49.794;10.024;2023-08-06T21:04:32;16.00;69.60
24636;DHT22;12772;49.794;10.024;2023-08-06T21:08:35;16.00;69.50
24636;DHT22;12772;49.794;10.024;2023-08-06T21:12:37;16.00;69.50
24636;DHT22;12772;49.794;10.024;2023-08-06T21:16:39;16.00;69.40
24636;DHT22;12772;49.794;10.024;2023-08-06T21:20:41;16.00;69.70
24636;DHT22;12772;49.794;10.024;2023-08-06T21:24:43;16.00;69.50
24636;DHT22;12772;49.794;10.024;2023-08-06T21:28:45;16.00;69.60
24636;DHT22;12772;49.794;10.024;2023-08-06T21:32:48;16.00;70.00
24636;DHT22;12772;49.794;10.024;2023-08-06T21:36:50;16.00;69.20
24636;DHT22;12772;49.794;10.024;2023-08-06T21:40:53;16.00;69.20
24636;DHT22;12772;49.794;10.024;2023-08-06T21:44:55;15.90;69.40
24636;DHT22;12772;49.794;10.024;2023-08-06T21:48:57;15.80;69.60
24636;DHT22;12772;49.794;10.024;2023-08-06T21:53:00;15.80;70.10
24636;DHT22;12772;49.794;10.024;2023-08-06T21:57:02;15.80;70.50
24636;DHT22;12772;49.794;10.024;2023-08-06T22:01:06;15.80;71.00
24636;DHT22;12772;49.794;10.024;2023-08-06T22:05:08;15.80;71.20
24636;DHT22;12772;49.794;10.024;2023-08-06T22:09:11;15.80;71.20
24636;DHT22;12772;49.794;10.024;2023-08-06T22:13:13;15.80;71.20
24636;DHT22;12772;49.794;10.024;2023-08-06T22:17:15;15.80;71.20
24636;DHT22;12772;49.794;10.024;2023-08-06T22:21:17;15.80;71.20
24636;DHT22;12772;49.794;10.024;2023-08-06T22:25:19;15.70;71.10
24636;DHT22;12772;49.794;10.024;2023-08-06T22:29:21;15.80;71.20
24636;DHT22;12772;49.794;10.024;2023-08-06T22:33:23;15.80;71.20
24636;DHT22;12772;49.794;10.024;2023-08-06T22:37:29;15.80;71.20
24636;DHT22;12772;49.794;10.024;2023-08-06T22:41:31;15.80;71.20
24636;DHT22;12772;49.794;10.024;2023-08-06T22:45:33;15.70;71.10
24636;DHT22;12772;49.794;10.024;2023-08-06T22:49:35;15.70;71.10
24636;DHT22;12772;49.794;10.024;2023-08-06T22:53:38;15.70;71.10
24636;DHT22;12772;49.794;10.024;2023-08-06T22:57:40;15.70;71.20
24636;DHT22;12772;49.794;10.024;2023-08-06T23:01:43;15.80;71.20
24636;DHT22;12772;49.794;10.024;2023-08-06T23:05:44;15.80;71.20
24636;DHT22;12772;49.794;10.024;2023-08-06T23:09:46;15.70;71.20
24636;DHT22;12772;49.794;10.024;2023-08-06T23:13:48;15.70;71.10
24636;DHT22;12772;49.794;10.024;2023-08-06T23:17:51;15.70;71.10
24636;DHT22;12772;49.794;10.024;2023-08-06T23:21:53;15.60;71.70
24636;DHT22;12772;49.794;10.024;2023-08-06T23:25:55;15.60;72.00
24636;DHT22;12772;49.794;10.024;2023-08-06T23:29:57;15.60;71.90
24636;DHT22;12772;49.794;10.024;2023-08-06T23:33:59;15.60;72.30
24636;DHT22;12772;49.794;10.024;2023-08-06T23:38:01;15.60;72.40
24636;DHT22;12772;49.794;10.024;2023-08-06T23:42:03;15.50;72.40
24636;DHT22;12772;49.794;10.024;2023-08-06T23:46:06;15.50;72.30
24636;DHT22;12772;49.794;10.024;2023-08-06T23:50:08;15.50;73.10
24636;DHT22;12772;49.794;10.024;2023-08-06T23:54:10;15.40;72.80
24636;DHT22;12772;49.794;10.024;2023-08-06T23:58:12;15.30;73.20
